Aeroporto :
LOGIN :

Iscrizione | Disclaimer

   EN    FR    IT 

 










Sommario :    VFR   VFR Marginale   IFR   IFR Intensivo   IFR Molto Intensivo
Visibilità : 
Base nubi : 
>= 8 km
>= 3000ft
5 / 8 km
1000 / 3000 ft
1500m / 5 km
500 / 1000 ft
800 / 1500m
200 / 500 ft
< 800m
< 200 ft
Simboli :   Temporali  Nebbia  Neve Forte  Precipitazioni Forti  Vento > 20 kt
SIGMETs :   Varie  Temporali  Ghiacco  Turbolenza  Onda orograficha  Ceneri Vulcaniche






- Altitudine del aeroporto : 81 ft
- Codice IATA : SCS


EGPM - Scatsta

ULTIMO METAR :
  • 221750Z AUTO 27020G30KT 9999 BKN017/// BKN035/// 05/02 Q0980

METARs OBSOLETI :
  • 221720Z AUTO 27021G32KT 9999 FEW006/// BKN018/// 05/02 Q0979 RERA
  • 221650Z AUTO 26026KT 9999 FEW005/// SCT019/// 06/02 Q0978
  • 221620Z AUTO 27024KT 9999 -RA FEW008/// BKN019/// 06/03 Q0978 RERA
  • 221550Z AUTO 26024KT 9999 FEW002/// SCT011/// BKN025/// 06/03 Q0977 RERA
  • 221520Z AUTO 25027KT 9999 FEW011/// SCT020/// BKN035/// 06/03 Q0977

TAF TAF EGPM
Valido dal 22 a 12 ore il 22 a 21 ore UTC


221100Z 2212/2221 24028KT 9999 SCT020
TEMPO 2212/2221 25038G48KT 4000 SHRASN SHRAGS BKN012CB
PROB40
TEMPO 2212/2221 2000 +SHRA BKN005
BECMG 2218/2221 30008KT



MetMap, La meteo Aeronautica in un colpo d'occhio ! - Copyright ORBIFLY Dicembre 2007 - Disclaimer

ORBIFLY MET'MAP TEAM :

Programmazione e sviluppo : Alexandra Zaïnal
Concezione : Baudouin d'Aumeries
Aiuto per la programmazione : Marc-Olivier Méhu
Supporto tecnico e logistico : Manuel Goepfert
Aiuto per la traduzione : Arnaldo La Scala

Contatto : metmap@orbifly.com




FONTI E CREDITI :

   NOAA